createdAt,value
2023-03-16T00:01:03.430Z,3.33
2023-03-16T00:03:31.881Z,3.67
2023-03-16T00:05:59.707Z,4.45
2023-03-16T00:08:27.527Z,3.72
2023-03-16T00:10:55.244Z,3.25
2023-03-16T00:13:25.540Z,3.35
2023-03-16T00:15:54.681Z,2.75
2023-03-16T00:18:27.419Z,2.75
2023-03-16T00:20:56.743Z,3.40
2023-03-16T00:23:27.202Z,2.95
2023-03-16T00:25:55.470Z,2.45
2023-03-16T00:28:24.590Z,3.00
2023-03-16T00:30:52.681Z,2.72
2023-03-16T00:33:20.393Z,3.15
2023-03-16T00:35:50.150Z,3.13
2023-03-16T00:38:18.275Z,2.70
2023-03-16T00:40:46.682Z,3.95
2023-03-16T00:43:18.514Z,2.67
2023-03-16T00:45:47.761Z,3.22
2023-03-16T00:48:16.327Z,2.15
2023-03-16T00:50:44.132Z,3.50
2023-03-16T00:53:11.850Z,2.13
2023-03-16T00:55:39.614Z,2.28
2023-03-16T00:58:07.358Z,1.92
2023-03-16T01:00:36.119Z,2.00
2023-03-16T01:03:05.362Z,2.03
2023-03-16T01:05:33.585Z,1.80
2023-03-16T01:08:02.633Z,2.50
2023-03-16T01:10:30.578Z,1.45
2023-03-16T01:12:58.292Z,2.22
2023-03-16T01:15:26.057Z,2.30
2023-03-16T01:17:54.345Z,1.70
2023-03-16T01:20:23.767Z,1.77
2023-03-16T01:22:52.084Z,1.80
2023-03-16T01:25:21.116Z,2.05
2023-03-16T01:27:48.886Z,1.42
2023-03-16T01:30:16.812Z,1.50
2023-03-16T01:32:44.667Z,1.70
2023-03-16T01:35:14.399Z,1.40
2023-03-16T01:37:43.750Z,1.52
2023-03-16T01:40:19.217Z,1.40
2023-03-16T01:42:48.225Z,1.92
2023-03-16T01:45:46.204Z,1.42
2023-03-16T01:48:14.573Z,1.50
2023-03-16T01:50:43.108Z,1.55
2023-03-16T01:53:12.529Z,1.20
2023-03-16T01:55:41.590Z,1.40
2023-03-16T01:58:09.476Z,1.15
2023-03-16T02:00:37.453Z,1.63
2023-03-16T02:03:14.618Z,1.90
2023-03-16T02:05:54.081Z,1.52
2023-03-16T02:08:26.235Z,1.75
2023-03-16T02:10:56.446Z,1.30
2023-03-16T02:13:33.807Z,1.42
2023-03-16T02:16:01.789Z,1.42
2023-03-16T02:18:29.847Z,1.63
2023-03-16T02:21:07.241Z,1.35
2023-03-16T02:23:36.322Z,1.35
2023-03-16T02:26:11.679Z,1.50
2023-03-16T02:28:48.560Z,1.05
2023-03-16T02:31:18.525Z,1.65
2023-03-16T02:33:48.215Z,1.80
2023-03-16T02:36:16.601Z,1.58
2023-03-16T02:38:44.380Z,1.42
2023-03-16T02:41:14.886Z,1.55
2023-03-16T02:43:46.728Z,1.85
2023-03-16T02:46:26.319Z,1.45
2023-03-16T02:49:04.154Z,0.95
2023-03-16T02:51:32.919Z,1.90
2023-03-16T02:54:00.814Z,1.70
2023-03-16T02:56:30.862Z,1.73
2023-03-16T02:58:58.729Z,1.90
2023-03-16T03:01:28.363Z,1.48
2023-03-16T03:03:56.143Z,1.65
2023-03-16T03:06:24.611Z,1.73
2023-03-16T03:08:52.470Z,1.83
2023-03-16T03:11:21.058Z,1.40
2023-03-16T03:13:48.961Z,1.40
2023-03-16T03:16:21.265Z,1.90
2023-03-16T03:18:53.321Z,1.63
2023-03-16T03:21:22.066Z,1.85
2023-03-16T03:23:49.821Z,1.75
2023-03-16T03:26:18.358Z,1.10
2023-03-16T03:28:47.397Z,1.10
2023-03-16T03:31:16.698Z,1.52
2023-03-16T03:33:44.729Z,1.30
2023-03-16T03:36:14.157Z,1.33
2023-03-16T03:38:44.145Z,1.30
2023-03-16T03:41:12.659Z,1.67
2023-03-16T03:43:40.938Z,1.55
2023-03-16T03:46:14.318Z,1.27
2023-03-16T03:48:42.170Z,1.02
2023-03-16T03:51:10.023Z,1.00
2023-03-16T03:53:47.098Z,1.40
2023-03-16T03:56:34.805Z,1.63
2023-03-16T03:59:03.202Z,1.00
2023-03-16T04:01:53.718Z,1.33
2023-03-16T04:04:23.594Z,1.05
2023-03-16T04:07:07.955Z,1.10
2023-03-16T04:09:37.255Z,1.50
2023-03-16T04:12:07.100Z,1.30
2023-03-16T04:14:35.493Z,2.03
2023-03-16T04:17:07.314Z,1.65
2023-03-16T04:19:37.229Z,1.27
2023-03-16T04:22:11.716Z,2.00
2023-03-16T04:24:43.028Z,1.75
2023-03-16T04:27:12.230Z,1.55
2023-03-16T04:29:40.652Z,1.30
2023-03-16T04:32:09.235Z,0.93
2023-03-16T04:34:39.430Z,1.25
2023-03-16T04:37:07.665Z,1.20
2023-03-16T04:39:38.800Z,1.35
2023-03-16T04:42:08.478Z,1.63
2023-03-16T04:44:44.433Z,1.63
2023-03-16T04:47:15.248Z,1.38
2023-03-16T04:49:44.270Z,1.70
2023-03-16T04:52:12.845Z,1.75
2023-03-16T04:54:41.555Z,2.20
2023-03-16T04:57:11.564Z,3.00
2023-03-16T04:59:44.371Z,3.50
2023-03-16T05:02:32.052Z,3.33
2023-03-16T05:05:01.750Z,2.22
2023-03-16T05:07:31.330Z,3.75
2023-03-16T05:09:59.656Z,2.13
2023-03-16T05:12:29.486Z,3.08
2023-03-16T05:15:01.598Z,2.80
2023-03-16T05:17:37.787Z,3.33
2023-03-16T05:20:08.148Z,1.88
2023-03-16T05:22:37.854Z,1.52
2023-03-16T05:25:25.796Z,2.20
2023-03-16T05:27:58.162Z,1.77
2023-03-16T05:30:39.484Z,1.90
2023-03-16T05:33:10.992Z,1.60
2023-03-16T05:35:39.155Z,2.20
2023-03-16T05:38:11.036Z,2.33
2023-03-16T05:40:42.230Z,2.42
2023-03-16T05:43:21.043Z,2.17
2023-03-16T05:45:51.600Z,2.00
2023-03-16T05:48:21.086Z,2.25
2023-03-16T05:50:55.043Z,7.18
2023-03-16T05:53:28.734Z,3.03
2023-03-16T05:56:03.234Z,3.03
2023-03-16T05:58:34.873Z,2.85
2023-03-16T06:01:11.094Z,3.83
2023-03-16T06:03:39.011Z,2.65
2023-03-16T06:06:09.453Z,2.28
2023-03-16T06:08:49.906Z,2.38
2023-03-16T06:11:21.954Z,2.42
2023-03-16T06:13:53.392Z,2.45
2023-03-16T06:16:21.468Z,2.70
2023-03-16T06:18:49.202Z,2.00
2023-03-16T06:21:17.235Z,2.30
2023-03-16T06:23:47.463Z,2.60
2023-03-16T06:26:15.904Z,1.70
2023-03-16T06:28:46.247Z,2.20
2023-03-16T06:31:15.448Z,2.17
2023-03-16T06:33:45.771Z,1.77
2023-03-16T06:36:14.928Z,2.20
2023-03-16T06:38:48.348Z,1.90
2023-03-16T06:41:26.150Z,2.50
2023-03-16T06:43:56.117Z,2.35
2023-03-16T06:46:25.593Z,1.80
2023-03-16T06:48:54.706Z,2.35
2023-03-16T06:51:23.325Z,2.33
2023-03-16T06:53:52.268Z,1.98
2023-03-16T06:56:20.719Z,1.70
2023-03-16T06:58:51.807Z,2.30
2023-03-16T07:01:24.963Z,2.13
2023-03-16T07:03:54.431Z,1.98
2023-03-16T07:06:27.023Z,1.63
2023-03-16T07:08:55.602Z,1.60
2023-03-16T07:11:24.361Z,1.70
2023-03-16T07:13:55.165Z,1.75
2023-03-16T07:16:26.092Z,2.20
2023-03-16T07:19:00.277Z,1.33
2023-03-16T07:21:28.236Z,1.85
2023-03-16T07:23:56.332Z,1.70
2023-03-16T07:26:30.545Z,1.60
2023-03-16T07:29:00.987Z,2.13
2023-03-16T07:31:30.475Z,1.52
2023-03-16T07:34:04.693Z,2.00
2023-03-16T07:36:38.969Z,2.35
2023-03-16T07:39:07.446Z,1.98
2023-03-16T07:41:36.268Z,1.52
2023-03-16T07:44:17.436Z,1.95
2023-03-16T07:46:50.875Z,1.95
2023-03-16T07:49:21.811Z,1.35
2023-03-16T07:51:51.322Z,1.73
2023-03-16T07:54:21.523Z,1.60
2023-03-16T07:56:50.661Z,1.07
2023-03-16T07:59:38.402Z,1.47
2023-03-16T08:02:06.535Z,1.00
2023-03-16T08:04:35.690Z,1.30
2023-03-16T08:07:04.259Z,1.13
2023-03-16T08:09:46.006Z,1.00
2023-03-16T08:12:19.680Z,1.40
2023-03-16T08:14:49.561Z,1.00
2023-03-16T08:17:24.988Z,0.97
2023-03-16T08:19:56.530Z,1.10
2023-03-16T08:22:26.922Z,0.80
2023-03-16T08:24:55.350Z,0.77
2023-03-16T08:27:23.560Z,1.10
2023-03-16T08:29:56.825Z,1.00
2023-03-16T08:32:29.249Z,0.90
2023-03-16T08:35:00.764Z,0.80
2023-03-16T08:37:31.786Z,1.08
2023-03-16T08:40:00.493Z,1.27
2023-03-16T08:42:29.875Z,0.90
2023-03-16T08:45:11.132Z,1.10
2023-03-16T08:47:42.564Z,0.87
2023-03-16T08:50:15.499Z,1.13
2023-03-16T08:52:43.309Z,0.60
2023-03-16T08:55:14.342Z,1.00
2023-03-16T08:57:46.305Z,4.40
2023-03-16T09:00:16.587Z,4.43
2023-03-16T09:02:46.784Z,5.90
2023-03-16T09:05:18.105Z,3.90
2023-03-16T09:07:48.887Z,4.83
2023-03-16T09:10:20.343Z,4.57
2023-03-16T09:12:50.318Z,4.20
2023-03-16T09:15:18.071Z,4.43
2023-03-16T09:17:45.909Z,3.90
2023-03-16T09:20:22.710Z,4.73
2023-03-16T09:22:55.399Z,5.30
2023-03-16T09:25:23.202Z,4.20
2023-03-16T09:27:51.157Z,3.93
2023-03-16T09:30:19.734Z,3.80
2023-03-16T09:32:48.723Z,2.10
2023-03-16T09:35:20.513Z,3.30
2023-03-16T09:38:05.248Z,3.83
2023-03-16T09:40:38.564Z,3.83
2023-03-16T09:43:24.786Z,3.30
2023-03-16T09:46:01.068Z,3.10
2023-03-16T09:48:32.700Z,2.60
2023-03-16T09:51:07.168Z,2.60
2023-03-16T09:53:39.911Z,2.43
2023-03-16T09:56:12.348Z,2.10
2023-03-16T09:58:42.105Z,1.27
2023-03-16T10:01:20.033Z,2.67
2023-03-16T10:04:02.862Z,2.60
2023-03-16T10:06:33.049Z,2.20
2023-03-16T10:09:12.333Z,2.40
2023-03-16T10:11:45.896Z,2.43
2023-03-16T10:14:24.794Z,1.73
2023-03-16T10:16:57.831Z,1.87
2023-03-16T10:19:36.006Z,1.87
2023-03-16T10:22:18.339Z,1.70
2023-03-16T10:24:58.516Z,1.77
2023-03-16T10:27:32.543Z,2.17
2023-03-16T10:30:02.162Z,1.60
2023-03-16T10:32:37.069Z,2.13
2023-03-16T10:35:17.146Z,1.50
2023-03-16T10:37:48.729Z,1.50
2023-03-16T10:40:20.279Z,1.43
2023-03-16T10:42:49.921Z,1.50
2023-03-16T10:45:27.570Z,1.27
2023-03-16T10:48:05.756Z,1.50
2023-03-16T10:50:34.121Z,1.40
2023-03-16T10:53:03.758Z,1.90
2023-03-16T10:55:35.092Z,1.60
2023-03-16T10:58:04.138Z,1.40
2023-03-16T11:00:36.737Z,3.50
2023-03-16T11:03:22.729Z,2.00
2023-03-16T11:05:59.192Z,1.93
2023-03-16T11:08:32.311Z,1.40
2023-03-16T11:11:02.619Z,1.80
2023-03-16T11:13:34.969Z,2.10
2023-03-16T11:16:06.686Z,1.90
2023-03-16T11:18:40.010Z,1.40
2023-03-16T11:21:16.268Z,1.87
2023-03-16T11:23:50.165Z,2.30
2023-03-16T11:26:24.019Z,1.37
2023-03-16T11:29:01.572Z,2.10
2023-03-16T11:31:42.651Z,2.50
2023-03-16T11:34:16.117Z,1.80
2023-03-16T11:36:51.037Z,1.50
2023-03-16T11:39:32.482Z,1.93
2023-03-16T11:42:13.035Z,1.63
2023-03-16T11:44:50.652Z,2.60
2023-03-16T11:47:33.214Z,1.83
2023-03-16T11:50:06.627Z,1.37
2023-03-16T11:52:46.508Z,1.40
2023-03-16T11:55:27.126Z,1.50
2023-03-16T11:58:09.994Z,1.70
2023-03-16T12:00:48.080Z,1.43
2023-03-16T12:03:36.491Z,1.53
2023-03-16T12:06:23.405Z,1.60
2023-03-16T12:09:12.905Z,1.17
2023-03-16T12:11:50.314Z,1.50
2023-03-16T12:14:24.412Z,1.20
2023-03-16T12:16:57.657Z,1.50
2023-03-16T12:19:36.872Z,1.43
2023-03-16T12:22:13.487Z,1.33
2023-03-16T12:24:48.075Z,1.90
2023-03-16T12:27:23.671Z,2.13
2023-03-16T12:30:03.472Z,1.40
2023-03-16T12:32:43.813Z,1.80
2023-03-16T12:35:26.455Z,1.70
2023-03-16T12:38:04.195Z,2.13
2023-03-16T12:40:41.544Z,1.83
2023-03-16T12:43:27.916Z,1.37
2023-03-16T12:46:06.140Z,1.40
2023-03-16T12:48:41.195Z,2.30
2023-03-16T12:51:12.403Z,1.80
2023-03-16T12:53:44.301Z,1.52
2023-03-16T12:56:17.462Z,1.50
2023-03-16T12:58:50.105Z,1.60
2023-03-16T13:01:21.193Z,2.63
2023-03-16T13:03:51.684Z,1.55
2023-03-16T13:06:23.340Z,1.10
2023-03-16T13:08:56.650Z,2.20
2023-03-16T13:11:25.251Z,1.52
2023-03-16T13:14:09.203Z,1.42
2023-03-16T13:16:38.308Z,1.38
2023-03-16T13:19:25.908Z,1.48
2023-03-16T13:22:04.002Z,1.30
2023-03-16T13:24:39.816Z,1.38
2023-03-16T13:27:22.220Z,1.35
2023-03-16T13:29:59.311Z,1.40
2023-03-16T13:32:33.096Z,1.50
2023-03-16T13:35:02.164Z,1.80
2023-03-16T13:37:31.448Z,1.13
2023-03-16T13:40:06.286Z,1.60
2023-03-16T13:42:35.060Z,1.60
2023-03-16T13:45:14.290Z,1.67
2023-03-16T13:47:45.152Z,1.55
2023-03-16T13:50:18.787Z,1.50
2023-03-16T13:52:57.125Z,1.35
2023-03-16T13:55:31.370Z,1.52
2023-03-16T13:57:59.805Z,1.50
2023-03-16T14:00:32.654Z,1.25
2023-03-16T14:03:05.070Z,1.13
2023-03-16T14:05:37.488Z,1.30
2023-03-16T14:08:05.456Z,1.25
2023-03-16T14:10:35.635Z,0.98
2023-03-16T14:13:10.468Z,0.95
2023-03-16T14:15:40.584Z,2.05
2023-03-16T14:18:16.483Z,1.10
2023-03-16T14:20:45.516Z,1.10
2023-03-16T14:23:24.443Z,1.25
2023-03-16T14:25:54.670Z,1.25
2023-03-16T14:28:29.473Z,1.10
2023-03-16T14:31:07.191Z,1.08
2023-03-16T14:33:37.690Z,0.80
2023-03-16T14:36:14.074Z,0.90
2023-03-16T14:38:43.626Z,0.82
2023-03-16T14:41:21.589Z,0.80
2023-03-16T14:43:51.525Z,1.27
2023-03-16T14:46:27.582Z,1.50
2023-03-16T14:49:03.477Z,0.82
2023-03-16T14:51:32.863Z,0.80
2023-03-16T14:54:00.700Z,0.85
2023-03-16T14:56:35.186Z,1.25
2023-03-16T14:59:02.961Z,1.38
2023-03-16T15:01:32.240Z,0.82
2023-03-16T15:04:00.088Z,0.90
2023-03-16T15:06:27.875Z,1.30
2023-03-16T15:08:56.762Z,1.40
2023-03-16T15:11:26.020Z,1.17
2023-03-16T15:14:03.779Z,0.82
2023-03-16T15:16:34.124Z,1.67
2023-03-16T15:19:02.052Z,0.98
2023-03-16T15:21:31.440Z,0.80
2023-03-16T15:23:59.448Z,1.98
2023-03-16T15:26:29.578Z,0.80
2023-03-16T15:28:58.120Z,0.70
2023-03-16T15:31:26.674Z,1.17
2023-03-16T15:33:56.050Z,1.15
2023-03-16T15:36:24.752Z,0.82
2023-03-16T15:38:54.952Z,1.10
2023-03-16T15:41:24.293Z,0.90
2023-03-16T15:43:52.763Z,1.00
2023-03-16T15:46:20.742Z,1.00
2023-03-16T15:48:48.492Z,1.00
2023-03-16T15:51:22.293Z,1.10
2023-03-16T15:53:52.416Z,1.15
2023-03-16T15:56:29.152Z,1.00
2023-03-16T15:59:00.222Z,0.95
2023-03-16T16:01:31.222Z,1.08
2023-03-16T16:03:59.891Z,0.80
2023-03-16T16:06:30.275Z,1.10
2023-03-16T16:09:02.553Z,1.10
2023-03-16T16:11:30.980Z,1.10
2023-03-16T16:14:02.024Z,1.20
2023-03-16T16:16:30.987Z,1.23
2023-03-16T16:18:58.924Z,1.42
2023-03-16T16:21:31.445Z,1.23
2023-03-16T16:24:01.184Z,1.30
2023-03-16T16:26:54.363Z,0.90
2023-03-16T16:29:25.599Z,1.40
2023-03-16T16:31:55.073Z,1.38
2023-03-16T16:34:25.379Z,1.60
2023-03-16T16:36:55.177Z,1.13
2023-03-16T16:39:23.506Z,0.90
2023-03-16T16:41:54.290Z,1.00
2023-03-16T16:44:24.153Z,1.02
2023-03-16T16:46:53.500Z,0.90
2023-03-16T16:49:24.884Z,0.73
2023-03-16T16:52:15.125Z,0.75
2023-03-16T16:54:44.038Z,0.60
2023-03-16T16:57:19.308Z,1.00
2023-03-16T16:59:49.299Z,0.80
2023-03-16T17:02:28.077Z,0.90
2023-03-16T17:04:56.834Z,0.73
2023-03-16T17:07:26.391Z,1.10
2023-03-16T17:09:54.854Z,0.90
2023-03-16T17:12:24.464Z,0.75
2023-03-16T17:14:52.283Z,0.93
2023-03-16T17:17:20.230Z,0.80
2023-03-16T17:19:48.536Z,1.50
2023-03-16T17:22:24.279Z,1.08
2023-03-16T17:24:53.946Z,0.85
2023-03-16T17:27:26.023Z,0.90
2023-03-16T17:29:54.767Z,1.10
2023-03-16T17:32:23.452Z,1.13
2023-03-16T17:34:51.557Z,0.60
2023-03-16T17:37:22.024Z,0.80
2023-03-16T17:39:51.259Z,1.52
2023-03-16T17:42:22.848Z,1.45
2023-03-16T17:44:52.844Z,1.13
2023-03-16T17:47:22.996Z,0.98
2023-03-16T17:49:51.802Z,1.05
2023-03-16T17:52:21.449Z,1.60
2023-03-16T17:54:50.588Z,1.55
2023-03-16T17:57:30.030Z,2.22
2023-03-16T17:59:58.288Z,1.98
2023-03-16T18:02:44.913Z,2.30
2023-03-16T18:05:19.178Z,2.70
2023-03-16T18:07:48.684Z,2.83
2023-03-16T18:10:18.072Z,3.20
2023-03-16T18:12:48.972Z,3.40
2023-03-16T18:15:22.362Z,4.30
2023-03-16T18:17:50.771Z,3.95
2023-03-16T18:20:24.872Z,4.60
2023-03-16T18:22:52.588Z,4.70
2023-03-16T18:25:31.416Z,5.03
2023-03-16T18:28:01.572Z,5.40
2023-03-16T18:30:31.679Z,4.60
2023-03-16T18:33:00.991Z,5.32
2023-03-16T18:35:30.980Z,5.60
2023-03-16T18:37:59.153Z,5.45
2023-03-16T18:40:29.105Z,4.90
2023-03-16T18:42:57.106Z,4.80
2023-03-16T18:45:30.624Z,4.55
2023-03-16T18:47:58.578Z,5.35
2023-03-16T18:50:28.596Z,5.45
2023-03-16T18:52:58.171Z,5.78
2023-03-16T18:55:28.625Z,6.95
2023-03-16T18:57:57.807Z,6.22
2023-03-16T19:00:29.498Z,6.03
2023-03-16T19:03:01.429Z,7.10
2023-03-16T19:05:35.816Z,6.07
2023-03-16T19:08:07.233Z,6.88
2023-03-16T19:10:37.402Z,5.70
2023-03-16T19:13:11.491Z,6.63
2023-03-16T19:15:42.829Z,6.70
2023-03-16T19:18:10.629Z,5.53
2023-03-16T19:20:41.025Z,5.85
2023-03-16T19:23:16.602Z,5.53
2023-03-16T19:25:45.359Z,5.10
2023-03-16T19:28:18.670Z,5.60
2023-03-16T19:30:47.769Z,5.20
2023-03-16T19:33:20.844Z,6.50
2023-03-16T19:35:51.793Z,5.60
2023-03-16T19:38:21.216Z,4.20
2023-03-16T19:40:49.849Z,4.35
2023-03-16T19:43:19.067Z,4.25
2023-03-16T19:45:49.439Z,4.20
2023-03-16T19:48:21.490Z,4.70
2023-03-16T19:50:51.605Z,5.60
2023-03-16T19:53:23.784Z,4.82
2023-03-16T19:55:53.799Z,4.80
2023-03-16T19:58:30.561Z,5.90
2023-03-16T20:01:01.148Z,5.03
2023-03-16T20:03:31.802Z,5.03
2023-03-16T20:05:59.841Z,5.28
2023-03-16T20:08:29.156Z,5.00
2023-03-16T20:11:02.333Z,5.07
2023-03-16T20:13:31.227Z,4.57
2023-03-16T20:16:00.516Z,3.53
2023-03-16T20:18:29.284Z,3.72
2023-03-16T20:20:59.094Z,3.78
2023-03-16T20:23:28.427Z,3.80
2023-03-16T20:26:01.407Z,4.53
2023-03-16T20:28:34.600Z,3.75
2023-03-16T20:31:07.811Z,4.07
2023-03-16T20:33:37.323Z,4.22
2023-03-16T20:36:05.452Z,4.80
2023-03-16T20:38:34.368Z,5.43
2023-03-16T20:41:02.732Z,4.30
2023-03-16T20:43:32.657Z,5.15
2023-03-16T20:46:02.249Z,4.85
2023-03-16T20:48:32.382Z,4.82
2023-03-16T20:51:03.008Z,5.90
2023-03-16T20:53:32.228Z,4.97
2023-03-16T20:55:59.956Z,4.20
2023-03-16T20:58:28.752Z,4.28
2023-03-16T21:00:58.399Z,4.10
2023-03-16T21:03:29.357Z,3.20
2023-03-16T21:06:00.107Z,3.88
2023-03-16T21:08:28.702Z,3.45
2023-03-16T21:10:59.257Z,1.60
2023-03-16T21:13:30.884Z,2.40
2023-03-16T21:16:01.357Z,2.30
2023-03-16T21:18:30.323Z,2.47
2023-03-16T21:20:59.550Z,1.95
2023-03-16T21:23:27.280Z,2.63
2023-03-16T21:25:57.656Z,2.60
2023-03-16T21:28:29.933Z,2.33
2023-03-16T21:30:59.219Z,3.10
2023-03-16T21:33:31.046Z,2.58
2023-03-16T21:36:00.918Z,1.98
2023-03-16T21:38:31.048Z,2.90
2023-03-16T21:40:59.643Z,2.72
2023-03-16T21:43:28.456Z,2.20
2023-03-16T21:45:59.465Z,2.72
2023-03-16T21:48:32.371Z,3.47
2023-03-16T21:51:03.657Z,2.88
2023-03-16T21:53:33.328Z,2.80
2023-03-16T21:56:01.848Z,2.75
2023-03-16T21:58:29.655Z,2.30
2023-03-16T22:00:59.039Z,3.00
2023-03-16T22:03:44.265Z,1.55
2023-03-16T22:06:19.036Z,3.25
2023-03-16T22:08:46.964Z,2.60
2023-03-16T22:11:17.202Z,2.28
2023-03-16T22:13:44.995Z,3.10
2023-03-16T22:16:15.997Z,3.60
2023-03-16T22:18:45.292Z,2.30
2023-03-16T22:21:26.389Z,2.92
2023-03-16T22:23:55.107Z,2.17
2023-03-16T22:26:23.587Z,2.30
2023-03-16T22:28:52.440Z,2.33
2023-03-16T22:31:23.437Z,2.53
2023-03-16T22:33:51.339Z,2.17
2023-03-16T22:36:21.746Z,2.40
2023-03-16T22:38:56.808Z,2.45
2023-03-16T22:41:25.283Z,1.80
2023-03-16T22:43:54.053Z,1.98
2023-03-16T22:46:25.130Z,3.08
2023-03-16T22:48:53.995Z,2.30
2023-03-16T22:51:26.707Z,2.35
2023-03-16T22:53:59.525Z,2.33
2023-03-16T22:56:27.844Z,2.20
2023-03-16T22:58:58.492Z,1.90
2023-03-16T23:01:33.433Z,1.90
2023-03-16T23:04:01.200Z,1.92
2023-03-16T23:06:31.342Z,1.70
2023-03-16T23:09:00.578Z,1.73
2023-03-16T23:11:31.851Z,2.10
2023-03-16T23:14:00.403Z,1.45
2023-03-16T23:16:31.078Z,2.20
2023-03-16T23:18:58.865Z,1.67
2023-03-16T23:21:28.886Z,1.20
2023-03-16T23:24:04.052Z,1.33
2023-03-16T23:26:33.794Z,1.55
2023-03-16T23:29:01.588Z,1.48
2023-03-16T23:31:30.589Z,1.75
2023-03-16T23:33:58.582Z,2.10
2023-03-16T23:36:27.192Z,1.30
2023-03-16T23:38:55.005Z,2.30
2023-03-16T23:41:24.782Z,1.33
2023-03-16T23:43:54.489Z,1.90
2023-03-16T23:46:25.157Z,1.88
2023-03-16T23:48:55.018Z,1.55
2023-03-16T23:51:25.541Z,1.40
2023-03-16T23:53:53.487Z,1.70
2023-03-16T23:56:22.016Z,1.67
2023-03-16T23:58:50.604Z,1.55
